createdAt,value
2023-03-19T00:00:09.216Z,57.80
2023-03-19T00:01:11.449Z,57.81
2023-03-19T00:02:17.861Z,57.91
2023-03-19T00:03:24.688Z,57.95
2023-03-19T00:04:29.257Z,57.84
2023-03-19T00:05:31.658Z,57.70
2023-03-19T00:06:36.502Z,57.97
2023-03-19T00:07:46.040Z,57.80
2023-03-19T00:08:48.118Z,57.90
2023-03-19T00:09:54.392Z,58.00
2023-03-19T00:11:00.491Z,58.14
2023-03-19T00:12:04.876Z,58.31
2023-03-19T00:13:15.548Z,58.61
2023-03-19T00:14:20.914Z,58.91
2023-03-19T00:15:26.112Z,58.75
2023-03-19T00:16:28.354Z,58.60
2023-03-19T00:17:30.408Z,58.96
2023-03-19T00:18:38.891Z,58.90
2023-03-19T00:19:44.274Z,58.59
2023-03-19T00:20:51.414Z,58.61
2023-03-19T00:21:54.975Z,58.80
2023-03-19T00:22:58.831Z,58.62
2023-03-19T00:24:01.504Z,58.55
2023-03-19T00:25:10.818Z,58.30
2023-03-19T00:26:13.656Z,58.03
2023-03-19T00:27:18.889Z,57.94
2023-03-19T00:28:22.896Z,57.87
2023-03-19T00:29:27.998Z,57.84
2023-03-19T00:30:35.957Z,57.79
2023-03-19T00:31:39.521Z,57.87
2023-03-19T00:32:43.534Z,57.81
2023-03-19T00:33:47.813Z,57.83
2023-03-19T00:34:50.025Z,57.35
2023-03-19T00:35:53.582Z,57.37
2023-03-19T00:36:56.281Z,57.43
2023-03-19T00:37:58.988Z,57.55
2023-03-19T00:39:01.572Z,57.72
2023-03-19T00:40:08.560Z,57.73
2023-03-19T00:41:12.160Z,57.90
2023-03-19T00:42:18.177Z,57.90
2023-03-19T00:43:22.330Z,58.01
2023-03-19T00:44:25.097Z,58.21
2023-03-19T00:45:32.971Z,58.41
2023-03-19T00:46:39.642Z,58.13
2023-03-19T00:47:44.249Z,57.93
2023-03-19T00:48:53.383Z,58.25
2023-03-19T00:49:57.569Z,58.49
2023-03-19T00:51:10.971Z,58.48
2023-03-19T00:52:14.392Z,58.25
2023-03-19T00:53:21.390Z,57.91
2023-03-19T00:54:25.392Z,57.81
2023-03-19T00:55:28.155Z,57.94
2023-03-19T00:56:30.344Z,58.02
2023-03-19T00:57:32.951Z,57.93
2023-03-19T00:58:35.245Z,57.86
2023-03-19T00:59:37.550Z,57.70
2023-03-19T01:00:43.173Z,57.90
2023-03-19T01:01:51.919Z,58.10
2023-03-19T01:02:54.261Z,57.93
2023-03-19T01:03:58.339Z,58.03
2023-03-19T01:05:01.386Z,57.83
2023-03-19T01:06:03.858Z,57.57
2023-03-19T01:07:29.102Z,57.15
2023-03-19T01:08:32.021Z,57.22
2023-03-19T01:09:34.270Z,57.45
2023-03-19T01:10:36.469Z,57.83
2023-03-19T01:11:43.776Z,57.85
2023-03-19T01:12:46.577Z,58.17
2023-03-19T01:13:56.840Z,58.07
2023-03-19T01:14:59.799Z,57.90
2023-03-19T01:16:02.652Z,57.67
2023-03-19T01:17:04.833Z,57.74
2023-03-19T01:18:11.142Z,57.74
2023-03-19T01:19:15.227Z,57.74
2023-03-19T01:20:17.854Z,57.83
2023-03-19T01:21:20.817Z,57.90
2023-03-19T01:22:24.885Z,57.84
2023-03-19T01:23:30.580Z,57.75
2023-03-19T01:24:33.237Z,57.91
2023-03-19T01:25:39.065Z,57.86
2023-03-19T01:26:44.213Z,57.53
2023-03-19T01:27:49.372Z,57.11
2023-03-19T01:28:52.172Z,56.92
2023-03-19T01:30:00.200Z,56.95
2023-03-19T01:31:13.226Z,56.89
2023-03-19T01:32:24.328Z,56.81
2023-03-19T01:33:33.998Z,56.92
2023-03-19T01:34:39.783Z,56.74
2023-03-19T01:35:46.969Z,56.59
2023-03-19T01:36:49.902Z,56.47
2023-03-19T01:37:54.013Z,56.44
2023-03-19T01:38:58.527Z,56.44
2023-03-19T01:40:00.836Z,56.32
2023-03-19T01:41:03.591Z,56.42
2023-03-19T01:42:06.752Z,56.28
2023-03-19T01:43:25.901Z,56.19
2023-03-19T01:44:36.205Z,56.25
2023-03-19T01:46:17.304Z,56.19
2023-03-19T01:47:35.622Z,56.06
2023-03-19T01:48:49.786Z,56.11
2023-03-19T01:49:55.625Z,56.17
2023-03-19T01:50:59.260Z,56.19
2023-03-19T01:52:04.719Z,56.29
2023-03-19T01:53:12.609Z,56.32
2023-03-19T01:54:22.415Z,56.18
2023-03-19T01:55:29.522Z,56.29
2023-03-19T01:56:36.669Z,56.27
2023-03-19T01:58:58.611Z,56.27
2023-03-19T02:00:05.946Z,56.30
2023-03-19T02:01:27.846Z,56.29
2023-03-19T02:02:32.926Z,56.19
2023-03-19T02:03:38.429Z,56.34
2023-03-19T02:04:51.436Z,56.46
2023-03-19T02:05:55.374Z,56.78
2023-03-19T02:06:59.321Z,56.59
2023-03-19T02:08:04.761Z,56.44
2023-03-19T02:09:07.041Z,56.56
2023-03-19T02:10:13.400Z,56.61
2023-03-19T02:11:17.172Z,56.64
2023-03-19T02:12:19.516Z,56.40
2023-03-19T02:13:22.748Z,56.41
2023-03-19T02:14:25.183Z,56.31
2023-03-19T02:15:27.398Z,56.44
2023-03-19T02:16:29.751Z,56.46
2023-03-19T02:17:33.071Z,56.39
2023-03-19T02:18:35.647Z,56.35
2023-03-19T02:21:05.263Z,56.32
2023-03-19T02:22:10.042Z,56.50
2023-03-19T02:23:22.209Z,56.41
2023-03-19T02:24:32.446Z,56.29
2023-03-19T02:25:46.506Z,56.24
2023-03-19T02:26:50.348Z,56.19
2023-03-19T02:27:53.499Z,56.26
2023-03-19T02:28:57.031Z,56.31
2023-03-19T02:30:22.623Z,56.31
2023-03-19T02:31:24.856Z,56.24
2023-03-19T02:32:27.229Z,56.38
2023-03-19T02:33:29.812Z,56.36
2023-03-19T02:35:52.051Z,56.23
2023-03-19T02:37:18.614Z,56.27
2023-03-19T02:38:22.046Z,56.30
2023-03-19T02:39:28.311Z,56.35
2023-03-19T02:40:39.739Z,56.50
2023-03-19T02:41:42.707Z,56.46
2023-03-19T02:42:45.020Z,56.41
2023-03-19T02:43:47.095Z,56.50
2023-03-19T02:44:49.557Z,56.60
2023-03-19T02:45:51.904Z,56.48
2023-03-19T02:46:54.322Z,56.44
2023-03-19T02:47:56.999Z,56.35
2023-03-19T02:48:59.283Z,56.63
2023-03-19T02:50:02.016Z,56.60
2023-03-19T02:51:04.812Z,56.40
2023-03-19T02:52:07.457Z,56.48
2023-03-19T02:53:09.655Z,56.65
2023-03-19T02:54:11.834Z,56.57
2023-03-19T02:55:14.040Z,56.36
2023-03-19T02:56:16.314Z,56.52
2023-03-19T02:57:18.609Z,56.33
2023-03-19T02:58:21.278Z,56.26
2023-03-19T02:59:23.449Z,56.21
2023-03-19T03:00:26.672Z,56.28
2023-03-19T03:01:28.992Z,56.26
2023-03-19T03:02:31.333Z,56.28
2023-03-19T03:03:33.425Z,56.25
2023-03-19T03:04:35.957Z,56.26
2023-03-19T03:05:38.541Z,56.37
2023-03-19T03:06:40.831Z,56.29
2023-03-19T03:07:42.915Z,56.28
2023-03-19T03:08:46.325Z,56.23
2023-03-19T03:09:48.433Z,56.35
2023-03-19T03:10:50.948Z,56.28
2023-03-19T03:11:53.945Z,56.34
2023-03-19T03:12:56.495Z,56.39
2023-03-19T03:13:59.644Z,56.36
2023-03-19T03:15:02.792Z,56.29
2023-03-19T03:16:06.020Z,56.16
2023-03-19T03:17:08.850Z,56.08
2023-03-19T03:18:11.065Z,56.07
2023-03-19T03:19:13.798Z,56.00
2023-03-19T03:20:18.115Z,55.93
2023-03-19T03:21:20.731Z,55.89
2023-03-19T03:22:22.934Z,56.01
2023-03-19T03:23:24.975Z,55.90
2023-03-19T03:24:27.605Z,55.73
2023-03-19T03:25:30.178Z,55.69
2023-03-19T03:26:32.608Z,55.71
2023-03-19T03:27:34.989Z,55.73
2023-03-19T03:28:37.172Z,55.82
2023-03-19T03:29:40.649Z,55.71
2023-03-19T03:30:43.923Z,55.67
2023-03-19T03:31:46.883Z,55.55
2023-03-19T03:32:49.490Z,55.46
2023-03-19T03:33:51.668Z,55.49
2023-03-19T03:34:54.196Z,55.45
2023-03-19T03:35:56.388Z,55.41
2023-03-19T03:36:59.057Z,55.25
2023-03-19T03:38:01.262Z,55.11
2023-03-19T03:39:03.668Z,54.97
2023-03-19T03:40:08.255Z,55.04
2023-03-19T03:41:11.012Z,54.94
2023-03-19T03:42:14.174Z,54.92
2023-03-19T03:43:16.465Z,54.89
2023-03-19T03:44:19.072Z,54.82
2023-03-19T03:45:22.574Z,54.89
2023-03-19T03:46:26.579Z,54.75
2023-03-19T03:47:28.776Z,54.60
2023-03-19T03:48:30.853Z,54.60
2023-03-19T03:49:32.902Z,54.62
2023-03-19T03:50:35.593Z,54.69
2023-03-19T03:51:39.995Z,54.83
2023-03-19T03:52:42.607Z,54.89
2023-03-19T03:53:44.883Z,54.88
2023-03-19T03:54:47.361Z,54.82
2023-03-19T03:55:49.832Z,54.73
2023-03-19T03:56:54.224Z,54.51
2023-03-19T03:57:56.612Z,54.59
2023-03-19T03:58:58.913Z,54.75
2023-03-19T04:00:01.329Z,54.86
2023-03-19T04:01:03.721Z,54.92
2023-03-19T04:02:07.002Z,54.87
2023-03-19T04:03:09.282Z,54.72
2023-03-19T04:04:11.918Z,54.77
2023-03-19T04:05:14.243Z,54.79
2023-03-19T04:06:21.770Z,54.70
2023-03-19T04:07:26.279Z,54.60
2023-03-19T04:08:30.298Z,54.82
2023-03-19T04:09:33.594Z,54.78
2023-03-19T04:10:40.689Z,54.61
2023-03-19T04:11:42.987Z,54.47
2023-03-19T04:12:45.716Z,54.70
2023-03-19T04:13:48.399Z,54.71
2023-03-19T04:14:51.219Z,54.76
2023-03-19T04:15:53.685Z,54.79
2023-03-19T04:16:57.170Z,54.69
2023-03-19T04:17:59.624Z,54.51
2023-03-19T04:19:01.850Z,54.72
2023-03-19T04:20:06.530Z,54.82
2023-03-19T04:21:09.088Z,54.89
2023-03-19T04:22:11.787Z,54.78
2023-03-19T04:23:14.501Z,54.59
2023-03-19T04:24:16.956Z,54.46
2023-03-19T04:25:19.942Z,54.63
2023-03-19T04:26:22.216Z,54.64
2023-03-19T04:27:24.903Z,54.80
2023-03-19T04:28:28.270Z,54.92
2023-03-19T04:29:30.530Z,55.07
2023-03-19T04:30:35.436Z,54.88
2023-03-19T04:31:38.862Z,55.12
2023-03-19T04:32:41.189Z,55.57
2023-03-19T04:33:44.093Z,55.98
2023-03-19T04:34:46.870Z,56.17
2023-03-19T04:35:49.271Z,56.86
2023-03-19T04:36:51.333Z,57.71
2023-03-19T04:37:53.514Z,58.01
2023-03-19T04:38:56.964Z,58.15
2023-03-19T04:39:59.592Z,58.45
2023-03-19T04:41:01.974Z,58.47
2023-03-19T04:42:04.525Z,58.38
2023-03-19T04:43:08.640Z,58.26
2023-03-19T04:44:11.118Z,58.31
2023-03-19T04:45:14.959Z,58.34
2023-03-19T04:46:17.953Z,58.49
2023-03-19T04:47:20.196Z,58.60
2023-03-19T04:48:27.007Z,58.35
2023-03-19T04:49:29.511Z,58.44
2023-03-19T04:50:32.253Z,58.35
2023-03-19T04:51:35.326Z,58.28
2023-03-19T04:52:37.652Z,58.64
2023-03-19T04:53:40.396Z,58.82
2023-03-19T04:54:42.513Z,58.61
2023-03-19T04:55:44.661Z,59.02
2023-03-19T04:56:51.898Z,58.96
2023-03-19T04:57:55.634Z,58.69
2023-03-19T04:58:59.670Z,58.49
2023-03-19T05:00:04.217Z,58.40
2023-03-19T05:01:08.620Z,58.88
2023-03-19T05:02:12.709Z,58.67
2023-03-19T05:03:15.606Z,58.27
2023-03-19T05:04:19.309Z,58.30
2023-03-19T05:05:22.708Z,58.59
2023-03-19T05:06:26.384Z,58.85
2023-03-19T05:07:28.631Z,58.35
2023-03-19T05:08:32.235Z,58.42
2023-03-19T05:09:34.939Z,58.35
2023-03-19T05:10:37.891Z,58.83
2023-03-19T05:11:41.186Z,58.70
2023-03-19T05:12:48.238Z,58.80
2023-03-19T05:13:51.222Z,59.04
2023-03-19T05:14:55.602Z,58.99
2023-03-19T05:15:59.826Z,58.91
2023-03-19T05:17:02.111Z,59.02
2023-03-19T05:18:06.232Z,59.17
2023-03-19T05:19:10.284Z,59.17
2023-03-19T05:20:12.949Z,58.91
2023-03-19T05:21:17.491Z,58.82
2023-03-19T05:22:21.040Z,58.88
2023-03-19T05:23:23.216Z,58.97
2023-03-19T05:24:27.350Z,58.77
2023-03-19T05:25:30.399Z,59.18
2023-03-19T05:26:32.570Z,59.22
2023-03-19T05:27:43.413Z,58.58
2023-03-19T05:28:47.505Z,58.59
2023-03-19T05:29:50.852Z,58.88
2023-03-19T05:31:00.703Z,58.85
2023-03-19T05:32:05.758Z,59.02
2023-03-19T05:33:08.989Z,58.93
2023-03-19T05:34:13.096Z,58.93
2023-03-19T05:35:15.727Z,59.58
2023-03-19T05:36:17.914Z,62.62
2023-03-19T05:37:22.106Z,63.42
2023-03-19T05:38:26.147Z,63.09
2023-03-19T05:39:33.238Z,64.14
2023-03-19T05:40:37.859Z,65.04
2023-03-19T05:41:41.996Z,65.99
2023-03-19T05:42:46.001Z,64.59
2023-03-19T05:43:49.062Z,62.29
2023-03-19T05:44:53.096Z,61.18
2023-03-19T05:46:06.325Z,59.55
2023-03-19T05:47:11.811Z,63.53
2023-03-19T05:48:15.161Z,68.05
2023-03-19T05:49:18.893Z,70.56
2023-03-19T05:50:21.267Z,68.67
2023-03-19T05:51:31.320Z,65.66
2023-03-19T05:52:34.029Z,63.02
2023-03-19T05:53:36.210Z,62.20
2023-03-19T05:54:43.806Z,61.53
2023-03-19T05:55:50.451Z,60.93
2023-03-19T05:56:54.076Z,61.32
2023-03-19T05:58:06.974Z,61.97
2023-03-19T05:59:09.656Z,62.58
2023-03-19T06:00:17.243Z,62.83
2023-03-19T06:01:21.969Z,62.87
2023-03-19T06:02:24.736Z,62.94
2023-03-19T06:03:28.373Z,62.72
2023-03-19T06:04:32.502Z,62.24
2023-03-19T06:05:35.138Z,62.34
2023-03-19T06:06:39.289Z,62.37
2023-03-19T06:07:41.736Z,59.64
2023-03-19T06:08:46.129Z,57.98
2023-03-19T06:10:10.438Z,57.02
2023-03-19T06:11:12.874Z,56.15
2023-03-19T06:12:15.729Z,55.69
2023-03-19T06:13:28.643Z,55.30
2023-03-19T06:14:41.883Z,54.85
2023-03-19T06:15:48.092Z,54.47
2023-03-19T06:16:55.611Z,54.07
2023-03-19T06:17:58.061Z,54.29
2023-03-19T06:19:00.275Z,54.16
2023-03-19T06:20:03.243Z,53.84
2023-03-19T06:21:05.693Z,53.65
2023-03-19T06:22:08.319Z,53.71
2023-03-19T06:23:10.804Z,53.97
2023-03-19T06:24:12.858Z,54.29
2023-03-19T06:25:15.666Z,54.04
2023-03-19T06:26:17.918Z,53.97
2023-03-19T06:27:27.789Z,53.75
2023-03-19T06:28:32.580Z,53.91
2023-03-19T06:29:35.328Z,53.70
2023-03-19T06:30:39.474Z,53.66
2023-03-19T06:31:43.677Z,54.08
2023-03-19T06:32:47.773Z,54.17
2023-03-19T06:33:50.043Z,54.38
2023-03-19T06:34:52.925Z,54.43
2023-03-19T06:35:56.724Z,54.19
2023-03-19T06:36:58.888Z,54.15
2023-03-19T06:38:00.926Z,54.18
2023-03-19T06:39:05.121Z,54.87
2023-03-19T06:40:11.172Z,54.72
2023-03-19T06:41:13.341Z,55.04
2023-03-19T06:42:16.083Z,54.68
2023-03-19T06:43:18.969Z,55.12
2023-03-19T06:44:21.289Z,55.04
2023-03-19T06:45:23.443Z,55.31
2023-03-19T06:46:25.641Z,55.18
2023-03-19T06:47:28.019Z,55.38
2023-03-19T06:48:30.185Z,55.78
2023-03-19T06:49:32.366Z,55.94
2023-03-19T06:50:34.786Z,55.73
2023-03-19T06:51:38.199Z,55.76
2023-03-19T06:52:40.441Z,55.42
2023-03-19T06:53:42.882Z,55.63
2023-03-19T06:54:45.064Z,55.99
2023-03-19T06:55:47.749Z,56.00
2023-03-19T06:56:49.840Z,56.02
2023-03-19T06:57:51.904Z,56.01
2023-03-19T06:58:54.060Z,56.29
2023-03-19T06:59:56.226Z,56.32
2023-03-19T07:00:58.945Z,56.34
2023-03-19T07:02:01.292Z,56.34
2023-03-19T07:03:03.841Z,56.30
2023-03-19T07:04:05.923Z,56.20
2023-03-19T07:05:08.448Z,56.10
2023-03-19T07:06:11.533Z,56.15
2023-03-19T07:07:13.699Z,56.11
2023-03-19T07:08:15.992Z,56.41
2023-03-19T07:09:18.151Z,56.46
2023-03-19T07:10:21.037Z,56.42
2023-03-19T07:11:24.177Z,56.53
2023-03-19T07:12:27.424Z,56.45
2023-03-19T07:13:29.657Z,56.36
2023-03-19T07:14:31.869Z,55.88
2023-03-19T07:15:34.537Z,56.21
2023-03-19T07:16:36.980Z,55.94
2023-03-19T07:17:39.582Z,55.85
2023-03-19T07:18:41.733Z,56.30
2023-03-19T07:19:43.986Z,56.34
2023-03-19T07:20:46.278Z,56.25
2023-03-19T07:21:48.440Z,56.44
2023-03-19T07:22:51.700Z,56.46
2023-03-19T07:23:53.854Z,56.67
2023-03-19T07:24:56.126Z,56.51
2023-03-19T07:25:58.299Z,57.12
2023-03-19T07:27:00.839Z,57.32
2023-03-19T07:28:03.805Z,56.87
2023-03-19T07:29:06.049Z,56.68
2023-03-19T07:30:10.068Z,56.82
2023-03-19T07:31:12.183Z,56.76
2023-03-19T07:32:14.863Z,56.63
2023-03-19T07:33:17.495Z,56.50
2023-03-19T07:34:20.132Z,56.62
2023-03-19T07:35:22.870Z,57.09
2023-03-19T07:36:25.333Z,56.52
2023-03-19T07:37:27.441Z,56.36
2023-03-19T07:38:30.486Z,56.72
2023-03-19T07:39:32.808Z,56.99
2023-03-19T07:40:35.396Z,56.83
2023-03-19T07:41:37.973Z,56.46
2023-03-19T07:42:41.889Z,56.11
2023-03-19T07:43:45.020Z,55.67
2023-03-19T07:44:47.594Z,55.59
2023-03-19T07:45:49.806Z,55.62
2023-03-19T07:46:52.124Z,55.76
2023-03-19T07:47:54.304Z,55.88
2023-03-19T07:48:56.833Z,55.89
2023-03-19T07:50:00.028Z,56.00
2023-03-19T07:51:02.657Z,56.09
2023-03-19T07:52:04.915Z,56.37
2023-03-19T07:53:07.641Z,56.31
2023-03-19T07:54:09.634Z,56.43
2023-03-19T07:55:11.640Z,56.46
2023-03-19T07:56:14.540Z,56.18
2023-03-19T07:57:17.155Z,55.73
2023-03-19T07:58:19.130Z,55.37
2023-03-19T07:59:21.438Z,55.41
2023-03-19T08:00:23.966Z,55.99
2023-03-19T08:01:26.658Z,55.73
2023-03-19T08:02:28.797Z,55.60
2023-03-19T08:03:30.889Z,56.12
2023-03-19T08:04:33.112Z,55.99
2023-03-19T08:05:35.495Z,56.15
2023-03-19T08:06:37.873Z,56.29
2023-03-19T08:07:40.384Z,55.88
2023-03-19T08:08:42.541Z,56.23
2023-03-19T08:09:45.400Z,55.95
2023-03-19T08:10:47.546Z,55.48
2023-03-19T08:11:49.736Z,55.11
2023-03-19T08:12:51.800Z,55.72
2023-03-19T08:13:54.287Z,55.55
2023-03-19T08:14:56.365Z,55.25
2023-03-19T08:15:58.599Z,54.94
2023-03-19T08:17:00.884Z,55.17
2023-03-19T08:18:04.524Z,55.05
2023-03-19T08:19:07.087Z,55.50
2023-03-19T08:20:11.975Z,55.88
2023-03-19T08:21:13.998Z,55.43
2023-03-19T08:22:16.768Z,55.15
2023-03-19T08:23:19.444Z,55.83
2023-03-19T08:24:21.676Z,55.62
2023-03-19T08:25:24.586Z,55.67
2023-03-19T08:26:27.848Z,56.22
2023-03-19T08:27:30.257Z,55.42
2023-03-19T08:28:32.382Z,55.70
2023-03-19T08:29:34.665Z,55.71
2023-03-19T08:30:37.870Z,55.36
2023-03-19T08:31:40.560Z,54.62
2023-03-19T08:32:43.793Z,54.12
2023-03-19T08:33:47.248Z,54.03
2023-03-19T08:34:49.989Z,55.97
2023-03-19T08:35:52.225Z,59.02
2023-03-19T08:36:54.744Z,63.51
2023-03-19T08:37:56.951Z,67.27
2023-03-19T08:38:59.112Z,66.50
2023-03-19T08:40:01.519Z,65.55
2023-03-19T08:41:04.369Z,65.87
2023-03-19T08:42:06.629Z,67.87
2023-03-19T08:43:08.721Z,68.67
2023-03-19T08:44:10.804Z,68.41
2023-03-19T08:45:15.042Z,64.29
2023-03-19T08:46:18.287Z,60.84
2023-03-19T08:47:20.771Z,59.54
2023-03-19T08:48:23.509Z,58.35
2023-03-19T08:49:26.030Z,57.83
2023-03-19T08:50:28.333Z,57.22
2023-03-19T08:51:30.453Z,56.83
2023-03-19T08:52:32.625Z,56.99
2023-03-19T08:53:35.286Z,55.71
2023-03-19T08:54:37.881Z,55.66
2023-03-19T08:55:40.689Z,55.63
2023-03-19T08:56:43.639Z,55.62
2023-03-19T08:57:46.268Z,55.46
2023-03-19T08:58:48.502Z,55.58
2023-03-19T08:59:52.851Z,56.08
2023-03-19T09:01:03.827Z,55.63
2023-03-19T09:02:06.774Z,56.21
2023-03-19T09:03:09.096Z,55.59
2023-03-19T09:04:11.237Z,55.26
2023-03-19T09:05:13.956Z,54.64
2023-03-19T09:06:17.260Z,55.63
2023-03-19T09:07:19.406Z,55.64
2023-03-19T09:08:22.012Z,55.35
2023-03-19T09:09:25.379Z,55.80
2023-03-19T09:10:28.146Z,55.39
2023-03-19T09:11:30.366Z,55.88
2023-03-19T09:12:33.144Z,55.86
2023-03-19T09:13:35.531Z,55.39
2023-03-19T09:14:39.265Z,55.28
2023-03-19T09:15:42.144Z,55.07
2023-03-19T09:16:44.965Z,55.26
2023-03-19T09:17:47.101Z,55.43
2023-03-19T09:18:49.807Z,55.37
2023-03-19T09:19:53.640Z,55.06
2023-03-19T09:20:58.371Z,54.93
2023-03-19T09:22:00.647Z,55.00
2023-03-19T09:23:03.916Z,54.81
2023-03-19T09:24:09.499Z,53.85
2023-03-19T09:25:12.345Z,54.01
2023-03-19T09:26:14.955Z,53.80
2023-03-19T09:27:21.736Z,53.78
2023-03-19T09:28:26.235Z,53.95
2023-03-19T09:29:30.010Z,54.32
2023-03-19T09:30:36.624Z,54.36
2023-03-19T09:31:40.615Z,54.33
2023-03-19T09:32:44.939Z,54.86
2023-03-19T09:33:47.642Z,54.34
2023-03-19T09:34:50.789Z,54.80
2023-03-19T09:35:54.113Z,54.63
2023-03-19T09:37:16.662Z,54.24
2023-03-19T09:38:22.629Z,54.10
2023-03-19T09:39:24.888Z,53.50
2023-03-19T09:40:36.947Z,52.98
2023-03-19T09:42:12.959Z,52.81
2023-03-19T09:43:43.005Z,53.22
2023-03-19T09:44:46.464Z,53.44
2023-03-19T09:45:50.377Z,53.68
2023-03-19T09:47:02.015Z,53.91
2023-03-19T09:49:29.753Z,52.97
2023-03-19T09:50:33.891Z,52.79
2023-03-19T09:53:07.668Z,53.58
2023-03-19T09:54:34.392Z,53.19
2023-03-19T09:55:49.201Z,52.43
2023-03-19T09:56:52.478Z,51.20
2023-03-19T09:59:14.480Z,51.75
2023-03-19T10:00:23.260Z,52.32
2023-03-19T10:01:29.328Z,52.54
2023-03-19T10:02:45.207Z,51.61
2023-03-19T10:03:54.438Z,51.84
2023-03-19T10:05:09.745Z,51.18
2023-03-19T10:06:24.832Z,50.91
2023-03-19T10:07:46.894Z,50.74
2023-03-19T10:08:58.584Z,52.45
2023-03-19T10:10:28.335Z,52.62
2023-03-19T10:11:55.529Z,51.62
2023-03-19T10:13:27.776Z,51.06
2023-03-19T10:14:56.466Z,50.98
2023-03-19T10:16:01.012Z,50.94
2023-03-19T10:17:10.816Z,51.66
2023-03-19T10:18:20.976Z,52.21
2023-03-19T10:20:53.670Z,51.68
2023-03-19T10:21:59.339Z,52.45
2023-03-19T10:23:36.931Z,52.32
2023-03-19T10:24:41.420Z,51.86
2023-03-19T10:25:43.670Z,54.36
2023-03-19T10:26:47.864Z,58.23
2023-03-19T10:27:54.279Z,61.51
2023-03-19T10:29:03.549Z,62.87
2023-03-19T10:30:14.259Z,61.58
2023-03-19T10:31:38.813Z,61.58
2023-03-19T10:32:45.835Z,62.56
2023-03-19T10:34:11.038Z,64.28
2023-03-19T10:35:38.034Z,63.46
2023-03-19T10:36:40.843Z,65.12
2023-03-19T10:37:47.041Z,63.78
2023-03-19T10:38:54.469Z,63.35
2023-03-19T10:39:58.835Z,61.59
2023-03-19T10:41:07.660Z,62.98
2023-03-19T10:43:27.728Z,63.42
2023-03-19T10:44:34.540Z,62.85
2023-03-19T10:45:39.193Z,63.33
2023-03-19T10:46:44.920Z,62.42
2023-03-19T10:47:48.728Z,60.36
2023-03-19T10:48:51.261Z,59.11
2023-03-19T10:49:55.775Z,58.14
2023-03-19T10:51:05.637Z,56.23
2023-03-19T10:53:43.431Z,56.12
2023-03-19T10:54:46.513Z,55.74
2023-03-19T10:55:56.953Z,55.51
2023-03-19T10:57:18.762Z,54.42
2023-03-19T10:58:27.127Z,53.43
2023-03-19T10:59:32.362Z,52.62
2023-03-19T11:00:36.393Z,52.89
2023-03-19T11:01:40.734Z,52.41
2023-03-19T11:02:48.989Z,52.49
2023-03-19T11:03:55.029Z,56.92
2023-03-19T11:06:37.299Z,56.80
2023-03-19T11:07:39.882Z,55.11
2023-03-19T11:08:43.084Z,54.70
2023-03-19T11:09:50.123Z,53.42
2023-03-19T11:10:52.994Z,53.03
2023-03-19T11:13:26.023Z,53.26
2023-03-19T11:14:37.967Z,52.73
2023-03-19T11:15:40.188Z,52.58
2023-03-19T11:16:51.864Z,52.30
2023-03-19T11:17:59.839Z,52.39
2023-03-19T11:19:02.721Z,52.03
2023-03-19T11:21:31.931Z,51.76
2023-03-19T11:22:36.550Z,51.69
2023-03-19T11:23:41.412Z,51.38
2023-03-19T11:25:17.554Z,51.42
2023-03-19T11:26:21.527Z,51.69
2023-03-19T11:27:33.584Z,52.00
2023-03-19T11:28:37.129Z,51.85
2023-03-19T11:29:42.337Z,51.72
2023-03-19T11:31:00.925Z,51.06
2023-03-19T11:33:58.595Z,51.36
2023-03-19T11:35:15.078Z,51.14
2023-03-19T11:36:22.081Z,51.13
2023-03-19T11:39:29.238Z,49.76
2023-03-19T11:40:45.461Z,48.08
2023-03-19T11:42:00.898Z,48.94
2023-03-19T11:43:10.045Z,49.21
2023-03-19T11:44:15.845Z,48.87
2023-03-19T11:45:42.129Z,48.95
2023-03-19T11:48:41.349Z,50.56
2023-03-19T11:51:22.756Z,50.22
2023-03-19T11:52:31.426Z,50.30
2023-03-19T11:56:20.947Z,50.79
2023-03-19T11:57:52.846Z,51.02
2023-03-19T11:59:18.203Z,50.98
2023-03-19T12:00:41.303Z,51.93
2023-03-19T12:02:09.774Z,51.76
2023-03-19T12:03:39.539Z,52.83
2023-03-19T12:04:55.570Z,57.19
2023-03-19T12:06:12.433Z,56.26
2023-03-19T12:07:34.899Z,54.27
2023-03-19T12:08:40.537Z,54.06
2023-03-19T12:09:56.612Z,55.86
2023-03-19T12:11:23.720Z,52.63
2023-03-19T12:12:34.604Z,52.26
2023-03-19T12:13:56.925Z,52.79
2023-03-19T12:15:23.788Z,53.33
2023-03-19T12:16:55.442Z,55.21
2023-03-19T12:20:00.123Z,54.34
2023-03-19T12:21:18.657Z,55.23
2023-03-19T12:22:44.678Z,53.53
2023-03-19T12:24:00.137Z,55.02
2023-03-19T12:25:38.069Z,54.92
2023-03-19T12:28:23.855Z,55.62
2023-03-19T12:30:57.894Z,55.31
2023-03-19T12:33:54.665Z,58.47
2023-03-19T12:35:03.135Z,56.94
2023-03-19T12:36:09.107Z,56.33
2023-03-19T12:37:32.499Z,55.14
2023-03-19T12:38:41.584Z,54.24
2023-03-19T12:39:59.594Z,55.71
2023-03-19T12:41:07.860Z,55.19
2023-03-19T12:42:32.150Z,54.31
2023-03-19T12:44:00.091Z,53.96
2023-03-19T12:45:03.895Z,52.19
2023-03-19T12:46:18.468Z,53.24
2023-03-19T12:48:43.559Z,54.61
2023-03-19T12:49:58.727Z,54.21
2023-03-19T12:52:35.360Z,53.83
2023-03-19T12:53:45.335Z,55.07
2023-03-19T12:54:59.820Z,57.03
2023-03-19T12:56:08.596Z,58.67
2023-03-19T12:58:58.838Z,57.19
2023-03-19T13:00:13.824Z,56.81
2023-03-19T13:01:20.570Z,55.58
2023-03-19T13:02:49.579Z,52.68
2023-03-19T13:04:10.199Z,52.25
2023-03-19T13:05:18.825Z,50.03
2023-03-19T13:06:34.057Z,52.51
2023-03-19T13:07:56.594Z,50.37
2023-03-19T13:09:13.998Z,54.70
2023-03-19T13:12:00.568Z,57.48
2023-03-19T13:13:23.417Z,57.03
2023-03-19T13:14:45.159Z,57.50
2023-03-19T13:15:49.596Z,57.52
2023-03-19T13:18:38.881Z,53.49
2023-03-19T13:19:47.153Z,55.08
2023-03-19T13:21:04.424Z,55.87
2023-03-19T13:22:13.060Z,55.58
2023-03-19T13:23:21.822Z,55.65
2023-03-19T13:29:02.296Z,54.16
2023-03-19T13:30:14.602Z,46.12
2023-03-19T13:31:24.221Z,47.09
2023-03-19T13:32:39.213Z,49.29
2023-03-19T13:33:46.303Z,51.31
2023-03-19T13:34:49.409Z,52.23
2023-03-19T13:35:52.121Z,52.66
2023-03-19T13:38:28.191Z,52.53
2023-03-19T13:39:32.719Z,52.50
2023-03-19T13:40:50.065Z,52.39
2023-03-19T13:42:12.469Z,52.08
2023-03-19T13:43:33.798Z,51.68
2023-03-19T13:44:53.666Z,51.58
2023-03-19T13:46:17.751Z,51.51
2023-03-19T13:47:30.404Z,51.58
2023-03-19T13:48:49.529Z,51.59
2023-03-19T13:50:21.734Z,51.45
2023-03-19T13:51:26.072Z,51.41
2023-03-19T13:52:32.187Z,51.42
2023-03-19T13:53:40.219Z,51.26
2023-03-19T13:54:44.795Z,51.13
2023-03-19T13:55:58.587Z,51.11
2023-03-19T13:57:18.564Z,51.17
2023-03-19T13:58:26.317Z,50.96
2023-03-19T13:59:30.923Z,50.89
2023-03-19T14:00:47.367Z,50.87
2023-03-19T14:01:49.773Z,50.78
2023-03-19T14:02:53.577Z,50.61
2023-03-19T14:03:58.791Z,50.53
2023-03-19T14:05:16.739Z,46.17
2023-03-19T14:06:49.600Z,45.07
2023-03-19T14:07:54.821Z,44.54
2023-03-19T14:08:57.066Z,42.57
2023-03-19T14:10:02.947Z,43.82
2023-03-19T14:11:06.751Z,43.07
2023-03-19T14:12:21.401Z,41.77
2023-03-19T14:14:49.853Z,44.28
2023-03-19T14:15:53.587Z,43.04
2023-03-19T14:16:55.879Z,42.45
2023-03-19T14:18:01.937Z,40.58
2023-03-19T14:19:08.761Z,39.25
2023-03-19T14:20:24.069Z,40.05
2023-03-19T14:21:46.372Z,41.67
2023-03-19T14:23:12.939Z,39.70
2023-03-19T14:26:17.767Z,37.24
2023-03-19T14:27:28.200Z,37.77
2023-03-19T14:28:46.137Z,39.13
2023-03-19T14:29:50.089Z,38.43
2023-03-19T15:35:28.128Z,36.15
2023-03-19T15:36:32.843Z,35.08
2023-03-19T15:39:07.390Z,34.71
2023-03-19T15:40:12.739Z,34.53
2023-03-19T15:41:17.011Z,34.29
2023-03-19T15:42:20.133Z,34.43
2023-03-19T15:43:24.029Z,34.36
2023-03-19T15:44:30.481Z,34.16
2023-03-19T15:45:34.785Z,34.17
2023-03-19T15:46:42.631Z,34.26
2023-03-19T15:49:08.292Z,34.38
2023-03-19T15:50:19.479Z,34.64
2023-03-19T15:51:26.312Z,34.67
2023-03-19T15:52:31.195Z,34.87
2023-03-19T15:53:38.369Z,34.99
2023-03-19T15:54:56.848Z,35.29
2023-03-19T15:56:16.193Z,35.49
2023-03-19T15:57:24.636Z,35.04
2023-03-19T16:00:03.879Z,35.01
2023-03-19T16:01:11.831Z,35.03
2023-03-19T16:04:09.731Z,35.55
2023-03-19T16:05:32.795Z,35.30
2023-03-19T16:06:37.685Z,35.28
2023-03-19T16:07:42.617Z,35.44
2023-03-19T16:08:52.629Z,35.34
2023-03-19T16:09:55.994Z,35.50
2023-03-19T16:11:28.358Z,35.28
2023-03-19T16:12:41.722Z,35.31
2023-03-19T16:15:27.323Z,35.72
2023-03-19T16:16:31.155Z,36.03
2023-03-19T16:17:35.519Z,36.23